Time,TemperatureF,DewpointF,PressureIn,WindDirection,WindDirectionDegrees,WindSpeedMPH,WindSpeedGustMPH,Humidity,HourlyPrecipIn,Conditions,Clouds,dailyrainin,SoftwareType,DateUTC
2013-07-18 00:02:00,77.0,72.0,-100.00,SE,145,1.0,1.0,84,-99.99,,,-99.99,,2013-07-18 05:02:00,
2013-07-18 00:11:00,77.0,72.0,-100.00,SE,145,1.0,1.0,84,-99.99,,,-99.99,,2013-07-18 05:11:00,
2013-07-18 00:22:00,77.0,72.0,-100.00,SE,145,1.0,1.0,84,-99.99,,,-99.99,,2013-07-18 05:22:00,
2013-07-18 00:42:00,78.0,73.0,-100.00,South,170,1.0,1.0,84,-99.99,,,-99.99,,2013-07-18 05:42:00,
2013-07-18 00:52:00,78.0,73.0,-100.00,South,170,1.0,1.0,84,-99.99,,,-99.99,,2013-07-18 05:52:00,
2013-07-18 01:12:00,76.0,71.0,-100.00,South,185,1.0,1.0,86,-99.99,,,-99.99,,2013-07-18 06:12:00,
2013-07-18 01:22:00,76.0,71.0,-100.00,South,185,1.0,1.0,86,-99.99,,,-99.99,,2013-07-18 06:22:00,
2013-07-18 01:32:00,76.0,72.0,-100.00,SSW,195,1.0,1.0,87,-99.99,,,-99.99,,2013-07-18 06:32:00,
2013-07-18 01:43:00,76.0,72.0,-100.00,SSW,195,1.0,1.0,87,-99.99,,,-99.99,,2013-07-18 06:43:00,
2013-07-18 01:52:00,76.0,72.0,-100.00,SSW,195,1.0,1.0,87,-99.99,,,-99.99,,2013-07-18 06:52:00,
2013-07-18 02:01:00,78.0,76.0,-100.00,WSW,250,1.0,1.0,94,-99.99,,,-99.99,,2013-07-18 07:01:00,
2013-07-18 02:12:00,73.0,69.0,-100.00,SSE,165,1.0,1.0,87,-99.99,,,-99.99,,2013-07-18 07:12:00,
2013-07-18 02:22:00,73.0,69.0,-100.00,SSE,165,1.0,1.0,87,-99.99,,,-99.99,,2013-07-18 07:22:00,
2013-07-18 02:32:00,73.0,69.0,-100.00,SSE,165,1.0,1.0,87,-99.99,,,-99.99,,2013-07-18 07:32:00,
2013-07-18 02:42:00,73.0,69.0,-100.00,SSE,165,1.0,1.0,87,-99.99,,,-99.99,,2013-07-18 07:42:00,
2013-07-18 05:52:00,71.0,67.0,-100.00,SSE,155,1.0,1.0,89,-99.99,,,-99.99,,2013-07-18 10:52:00,
2013-07-18 06:22:00,73.0,69.0,-100.00,SSE,165,1.0,1.0,89,-99.99,,,-99.99,,2013-07-18 11:22:00,
2013-07-18 06:32:00,73.0,69.0,-100.00,SSE,165,1.0,1.0,89,-99.99,,,-99.99,,2013-07-18 11:32:00,
2013-07-18 06:43:00,73.0,69.0,-100.00,SSE,165,1.0,1.0,89,-99.99,,,-99.99,,2013-07-18 11:43:00,
2013-07-18 07:22:00,78.0,74.0,-100.00,South,180,1.0,1.0,89,-99.99,,,-99.99,,2013-07-18 12:22:00,
2013-07-18 07:42:00,77.0,73.0,-100.00,SSE,155,1.0,1.0,86,-99.99,,,-99.99,,2013-07-18 12:42:00,
2013-07-18 07:52:00,77.0,73.0,-100.00,SSE,155,1.0,1.0,86,-99.99,,,-99.99,,2013-07-18 12:52:00,
2013-07-18 08:43:00,77.0,66.0,-100.00,SSW,205,1.0,1.0,70,-99.99,,,-99.99,,2013-07-18 13:43:00,
2013-07-18 08:53:00,77.0,66.0,-100.00,SSW,205,1.0,1.0,70,-99.99,,,-99.99,,2013-07-18 13:53:00,
2013-07-18 09:12:00,82.0,68.0,-100.00,WSW,240,1.0,1.0,62,-99.99,,,-99.99,,2013-07-18 14:12:00,
2013-07-18 09:22:00,82.0,68.0,-100.00,WSW,240,1.0,1.0,62,-99.99,,,-99.99,,2013-07-18 14:22:00,
2013-07-18 09:43:00,86.0,72.0,-100.00,West,270,1.0,1.0,64,-99.99,,,-99.99,,2013-07-18 14:43:00,
2013-07-18 09:53:00,86.0,72.0,-100.00,West,270,1.0,1.0,64,-99.99,,,-99.99,,2013-07-18 14:53:00,
2013-07-18 10:22:00,87.0,70.0,-100.00,SSW,195,1.0,1.0,58,-99.99,,,-99.99,,2013-07-18 15:22:00,
2013-07-18 10:53:00,88.0,70.0,-100.00,SW,235,1.0,1.0,55,-99.99,,,-99.99,,2013-07-18 15:53:00,
2013-07-18 11:32:00,93.0,73.0,-100.00,SSW,205,1.0,1.0,53,-99.99,,,-99.99,,2013-07-18 16:32:00,
2013-07-18 12:11:00,89.0,72.0,-100.00,SSW,205,1.0,1.0,58,-99.99,,,-99.99,,2013-07-18 17:11:00,
2013-07-18 12:22:00,89.0,72.0,-100.00,SSW,205,1.0,1.0,58,-99.99,,,-99.99,,2013-07-18 17:22:00,
2013-07-18 13:11:00,89.0,69.0,-100.00,SW,215,1.0,1.0,52,-99.99,,,-99.99,,2013-07-18 18:11:00,
2013-07-18 13:22:00,89.0,69.0,-100.00,SW,215,1.0,1.0,52,-99.99,,,-99.99,,2013-07-18 18:22:00,
2013-07-18 15:11:00,92.0,69.0,-100.00,WSW,245,1.0,1.0,47,-99.99,,,-99.99,,2013-07-18 20:11:00,
2013-07-18 15:22:00,92.0,69.0,-100.00,WSW,245,1.0,1.0,47,-99.99,,,-99.99,,2013-07-18 20:22:00,
2013-07-18 15:32:00,90.0,72.0,-100.00,SSW,195,1.0,1.0,56,-99.99,,,-99.99,,2013-07-18 20:32:00,
2013-07-18 16:43:00,91.0,68.0,-100.00,SW,215,1.0,1.0,48,-99.99,,,-99.99,,2013-07-18 21:43:00,
2013-07-18 16:52:00,91.0,68.0,-100.00,SW,215,1.0,1.0,48,-99.99,,,-99.99,,2013-07-18 21:52:00,
2013-07-18 17:32:00,90.0,71.0,-100.00,SW,235,1.0,1.0,53,-99.99,,,-99.99,,2013-07-18 22:32:00,
2013-07-18 18:30:00,90.0,69.0,-100.00,WSW,240,1.0,1.0,50,-99.99,,,-99.99,,2013-07-18 23:30:00,
2013-07-18 19:01:00,90.0,69.0,-100.00,WSW,240,1.0,1.0,50,-99.99,,,-99.99,,2013-07-19 00:01:00,
2013-07-18 19:11:00,90.0,69.0,-100.00,WSW,240,1.0,1.0,50,-99.99,,,-99.99,,2013-07-19 00:11:00,
2013-07-18 19:22:00,90.0,69.0,-100.00,WSW,240,1.0,1.0,50,-99.99,,,-99.99,,2013-07-19 00:22:00,
2013-07-18 19:43:00,87.0,68.0,-100.00,SW,220,1.0,1.0,53,-99.99,,,-99.99,,2013-07-19 00:43:00,
2013-07-18 19:52:00,87.0,68.0,-100.00,SW,220,1.0,1.0,53,-99.99,,,-99.99,,2013-07-19 00:52:00,
2013-07-18 20:22:00,86.0,70.0,-100.00,SSW,210,1.0,1.0,58,-99.99,,,-99.99,,2013-07-19 01:22:00,
2013-07-18 20:42:00,84.0,71.0,-100.00,SSW,195,1.0,1.0,65,-99.99,,,-99.99,,2013-07-19 01:42:00,
2013-07-18 20:52:00,84.0,71.0,-100.00,SSW,195,1.0,1.0,65,-99.99,,,-99.99,,2013-07-19 01:52:00,
2013-07-18 21:22:00,83.0,72.0,-100.00,SSW,200,1.0,1.0,70,-99.99,,,-99.99,,2013-07-19 02:22:00,
2013-07-18 22:01:00,81.0,75.0,-100.00,South,190,1.0,1.0,82,-99.99,,,-99.99,,2013-07-19 03:01:00,
2013-07-18 22:11:00,81.0,75.0,-100.00,South,190,1.0,1.0,82,-99.99,,,-99.99,,2013-07-19 03:11:00,
2013-07-18 22:22:00,81.0,75.0,-100.00,South,190,1.0,1.0,82,-99.99,,,-99.99,,2013-07-19 03:22:00,
2013-07-18 22:32:00,78.0,73.0,-100.00,South,190,1.0,1.0,85,-99.99,,,-99.99,,2013-07-19 03:32:00,
2013-07-18 22:52:00,83.0,78.0,-100.00,SSW,195,1.0,1.0,84,-99.99,,,-99.99,,2013-07-19 03:52:00,
2013-07-18 23:02:00,83.0,78.0,-100.00,SSW,195,1.0,1.0,84,-99.99,,,-99.99,,2013-07-19 04:02:00,
2013-07-18 23:52:00,77.0,71.0,-100.00,South,190,1.0,1.0,84,-99.99,,,-99.99,,2013-07-19 04:52:00,